createdAt,value
2023-03-10T00:00:04.762Z,12.20
2023-03-10T00:02:34.950Z,12.50
2023-03-10T00:05:05.863Z,10.55
2023-03-10T00:07:33.873Z,10.68
2023-03-10T00:10:01.960Z,12.25
2023-03-10T00:12:29.865Z,10.18
2023-03-10T00:14:57.628Z,14.13
2023-03-10T00:17:26.911Z,12.68
2023-03-10T00:19:54.871Z,23.00
2023-03-10T00:22:22.768Z,18.60
2023-03-10T00:24:50.634Z,18.67
2023-03-10T00:27:18.529Z,10.35
2023-03-10T00:29:46.349Z,11.15
2023-03-10T00:32:14.215Z,11.05
2023-03-10T00:34:43.471Z,12.00
2023-03-10T00:37:11.357Z,12.93
2023-03-10T00:39:39.510Z,12.88
2023-03-10T00:42:07.614Z,13.05
2023-03-10T00:44:35.925Z,13.40
2023-03-10T00:47:03.833Z,13.35
2023-03-10T00:49:31.835Z,14.02
2023-03-10T00:52:00.946Z,14.40
2023-03-10T00:54:29.051Z,14.67
2023-03-10T00:56:57.123Z,12.90
2023-03-10T00:59:25.174Z,14.40
2023-03-10T01:01:53.143Z,13.70
2023-03-10T01:04:21.094Z,13.52
2023-03-10T01:06:49.275Z,13.18
2023-03-10T01:09:19.150Z,10.20
2023-03-10T01:11:47.409Z,11.18
2023-03-10T01:14:17.217Z,10.55
2023-03-10T01:16:45.443Z,14.90
2023-03-10T01:19:13.388Z,12.88
2023-03-10T01:21:41.469Z,14.95
2023-03-10T01:24:15.022Z,12.38
2023-03-10T01:26:45.448Z,12.90
2023-03-10T01:29:13.557Z,11.48
2023-03-10T01:31:42.453Z,11.05
2023-03-10T01:34:10.398Z,9.13
2023-03-10T01:36:38.226Z,10.00
2023-03-10T01:39:07.145Z,9.75
2023-03-10T01:41:39.399Z,9.52
2023-03-10T01:44:16.074Z,10.25
2023-03-10T01:46:51.743Z,10.05
2023-03-10T01:49:40.331Z,9.50
2023-03-10T01:52:11.947Z,9.73
2023-03-10T01:54:46.669Z,9.55
2023-03-10T01:57:16.355Z,8.98
2023-03-10T01:59:46.517Z,8.57
2023-03-10T02:02:17.167Z,8.75
2023-03-10T02:04:48.668Z,8.23
2023-03-10T02:07:26.700Z,8.50
2023-03-10T02:09:56.595Z,8.85
2023-03-10T02:12:24.687Z,8.75
2023-03-10T02:14:54.842Z,8.55
2023-03-10T02:20:09.963Z,9.73
2023-03-10T02:22:39.005Z,9.57
2023-03-10T02:25:19.525Z,10.00
2023-03-10T02:27:48.935Z,9.95
2023-03-10T02:30:21.633Z,9.02
2023-03-10T02:32:54.463Z,10.13
2023-03-10T02:35:23.927Z,10.02
2023-03-10T02:37:57.489Z,9.90
2023-03-10T02:40:33.793Z,10.20
2023-03-10T02:43:14.880Z,9.70
2023-03-10T02:45:46.987Z,10.25
2023-03-10T02:48:19.840Z,11.10
2023-03-10T02:50:49.097Z,10.40
2023-03-10T02:53:18.823Z,10.65
2023-03-10T02:55:49.458Z,10.65
2023-03-10T02:58:19.701Z,9.82
2023-03-10T03:03:17.477Z,9.35
2023-03-10T03:08:15.093Z,11.05
2023-03-10T03:10:43.671Z,10.75
2023-03-10T03:13:12.318Z,11.15
2023-03-10T03:15:42.153Z,10.07
2023-03-10T03:18:10.387Z,8.85
2023-03-10T03:20:41.201Z,6.82
2023-03-10T03:23:10.343Z,5.20
2023-03-10T03:25:41.191Z,4.68
2023-03-10T03:28:13.918Z,6.13
2023-03-10T03:30:46.775Z,5.90
2023-03-10T03:33:15.131Z,6.13
2023-03-10T03:35:44.961Z,5.13
2023-03-10T03:38:14.362Z,5.30
2023-03-10T03:40:42.403Z,4.80
2023-03-10T03:43:13.231Z,5.22
2023-03-10T03:45:41.941Z,4.40
2023-03-10T03:48:13.952Z,4.40
2023-03-10T03:50:42.741Z,4.53
2023-03-10T03:53:20.195Z,4.40
2023-03-10T03:55:48.266Z,2.90
2023-03-10T03:58:16.278Z,3.05
2023-03-10T04:00:44.393Z,3.20
2023-03-10T04:03:13.677Z,2.67
2023-03-10T04:05:41.750Z,2.77
2023-03-10T04:08:09.894Z,3.03
2023-03-10T04:10:37.723Z,3.15
2023-03-10T04:13:05.858Z,3.20
2023-03-10T04:15:33.774Z,3.17
2023-03-10T04:18:01.712Z,3.40
2023-03-10T04:20:31.376Z,4.07
2023-03-10T04:23:02.021Z,3.58
2023-03-10T04:25:33.103Z,3.30
2023-03-10T04:28:01.791Z,3.10
2023-03-10T04:30:30.168Z,2.63
2023-03-10T04:33:02.674Z,2.40
2023-03-10T04:35:35.028Z,3.30
2023-03-10T04:38:04.015Z,3.10
2023-03-10T04:40:32.337Z,2.88
2023-03-10T04:43:00.218Z,2.60
2023-03-10T04:45:28.828Z,2.92
2023-03-10T04:47:58.018Z,2.90
2023-03-10T04:50:26.312Z,2.67
2023-03-10T04:52:57.015Z,2.90
2023-03-10T04:55:29.116Z,2.90
2023-03-10T04:57:58.718Z,2.60
2023-03-10T05:00:27.027Z,2.47
2023-03-10T05:02:54.997Z,2.72
2023-03-10T05:05:23.067Z,2.85
2023-03-10T05:07:50.946Z,2.60
2023-03-10T05:10:22.146Z,3.22
2023-03-10T05:12:50.009Z,3.00
2023-03-10T05:15:18.399Z,3.00
2023-03-10T05:17:48.846Z,3.50
2023-03-10T05:20:19.077Z,3.45
2023-03-10T05:22:46.916Z,3.13
2023-03-10T05:25:14.845Z,3.35
2023-03-10T05:27:44.248Z,4.00
2023-03-10T05:30:15.468Z,3.67
2023-03-10T05:32:46.033Z,3.67
2023-03-10T05:35:15.017Z,3.40
2023-03-10T05:37:45.357Z,3.45
2023-03-10T05:40:16.086Z,3.22
2023-03-10T05:42:46.508Z,4.13
2023-03-10T05:45:14.949Z,3.13
2023-03-10T05:47:46.516Z,3.65
2023-03-10T05:50:16.637Z,3.50
2023-03-10T05:52:45.872Z,3.15
2023-03-10T05:55:17.679Z,4.03
2023-03-10T05:57:48.538Z,3.78
2023-03-10T06:00:17.231Z,3.85
2023-03-10T06:02:55.846Z,3.53
2023-03-10T06:05:23.766Z,3.97
2023-03-10T06:07:52.420Z,3.88
2023-03-10T06:10:20.440Z,3.75
2023-03-10T06:12:49.572Z,3.70
2023-03-10T06:15:17.479Z,3.20
2023-03-10T06:17:45.318Z,3.70
2023-03-10T06:20:13.600Z,4.55
2023-03-10T06:22:41.550Z,7.10
2023-03-10T06:25:10.260Z,8.13
2023-03-10T06:27:38.110Z,13.15
2023-03-10T06:30:08.734Z,11.00
2023-03-10T06:32:36.638Z,11.68
2023-03-10T06:35:05.407Z,11.23
2023-03-10T06:37:33.432Z,9.30
2023-03-10T06:40:01.303Z,9.30
2023-03-10T06:42:29.146Z,14.85
2023-03-10T06:44:57.054Z,10.98
2023-03-10T06:47:26.323Z,9.70
2023-03-10T06:49:54.741Z,9.52
2023-03-10T06:52:22.858Z,9.30
2023-03-10T06:54:50.759Z,10.27
2023-03-10T06:57:20.968Z,9.35
2023-03-10T06:59:49.048Z,10.40
2023-03-10T07:02:16.790Z,11.27
2023-03-10T07:04:46.010Z,12.55
2023-03-10T07:07:14.509Z,13.98
2023-03-10T07:09:42.441Z,12.20
2023-03-10T07:12:10.480Z,12.38
2023-03-10T07:14:38.347Z,13.15
2023-03-10T07:17:06.410Z,12.18
2023-03-10T07:19:34.266Z,8.82
2023-03-10T07:22:03.476Z,8.68
2023-03-10T07:24:31.391Z,9.02
2023-03-10T07:27:00.941Z,7.97
2023-03-10T07:29:29.401Z,7.97
2023-03-10T07:31:57.275Z,9.52
2023-03-10T07:34:25.104Z,9.43
2023-03-10T07:36:52.923Z,10.38
2023-03-10T07:39:22.350Z,10.50
2023-03-10T07:41:50.173Z,11.90
2023-03-10T07:44:18.126Z,12.88
2023-03-10T07:46:45.945Z,14.38
2023-03-10T07:49:13.860Z,12.73
2023-03-10T07:51:41.672Z,10.52
2023-03-10T07:54:10.326Z,10.95
2023-03-10T07:56:39.590Z,11.00
2023-03-10T07:59:07.360Z,10.85
2023-03-10T08:01:35.552Z,12.88
2023-03-10T08:04:03.548Z,18.05
2023-03-10T08:06:32.749Z,10.30
2023-03-10T08:09:00.592Z,9.90
2023-03-10T08:11:28.500Z,9.02
2023-03-10T08:13:57.875Z,9.23
2023-03-10T08:16:26.442Z,8.70
2023-03-10T08:18:54.694Z,9.48
2023-03-10T08:21:23.279Z,9.57
2023-03-10T08:23:51.134Z,9.68
2023-03-10T08:26:19.857Z,9.85
2023-03-10T08:28:48.685Z,10.23
2023-03-10T08:31:20.431Z,10.75
2023-03-10T08:33:49.235Z,11.13
2023-03-10T08:36:19.027Z,11.50
2023-03-10T08:38:47.769Z,12.48
2023-03-10T08:41:18.134Z,12.52
2023-03-10T08:43:48.992Z,12.10
2023-03-10T08:46:19.751Z,11.55
2023-03-10T08:48:48.240Z,12.18
2023-03-10T08:51:18.869Z,14.52
2023-03-10T08:53:48.652Z,19.10
2023-03-10T08:56:17.858Z,17.48
2023-03-10T08:58:45.957Z,17.30
2023-03-10T09:01:15.439Z,19.63
2023-03-10T09:03:45.917Z,20.02
2023-03-10T09:06:14.324Z,18.05
2023-03-10T09:08:42.285Z,18.08
2023-03-10T09:11:15.346Z,41.47
2023-03-10T09:13:43.176Z,18.50
2023-03-10T09:16:11.612Z,19.65
2023-03-10T09:18:39.578Z,20.42
2023-03-10T09:21:08.844Z,19.45
2023-03-10T09:23:36.641Z,16.30
2023-03-10T09:26:04.536Z,15.02
2023-03-10T09:28:32.598Z,14.35
2023-03-10T09:31:00.451Z,14.48
2023-03-10T09:33:28.266Z,14.10
2023-03-10T09:36:06.342Z,14.23
2023-03-10T09:38:36.622Z,14.95
2023-03-10T09:41:23.293Z,15.18
2023-03-10T09:44:00.173Z,14.02
2023-03-10T09:46:39.814Z,21.05
2023-03-10T09:49:16.887Z,23.98
2023-03-10T09:51:49.279Z,13.45
2023-03-10T09:54:39.108Z,13.27
2023-03-10T09:57:16.671Z,11.07
2023-03-10T09:59:47.824Z,9.52
2023-03-10T10:02:21.282Z,8.88
2023-03-10T10:04:53.264Z,8.65
2023-03-10T10:07:23.258Z,7.30
2023-03-10T10:09:59.130Z,9.82
2023-03-10T10:12:28.188Z,10.73
2023-03-10T10:14:58.814Z,8.63
2023-03-10T10:17:52.255Z,9.15
2023-03-10T10:20:26.647Z,7.80
2023-03-10T10:22:54.506Z,7.20
2023-03-10T10:25:25.761Z,6.68
2023-03-10T10:27:55.775Z,7.10
2023-03-10T10:30:29.891Z,7.40
2023-03-10T10:32:59.371Z,7.72
2023-03-10T10:35:29.712Z,7.07
2023-03-10T10:40:34.370Z,7.35
2023-03-10T10:43:05.748Z,10.40
2023-03-10T10:45:35.612Z,8.50
2023-03-10T10:48:04.360Z,7.13
2023-03-10T10:50:33.630Z,7.05
2023-03-10T10:53:18.709Z,6.93
2023-03-10T10:55:59.599Z,7.53
2023-03-10T10:58:31.541Z,6.38
2023-03-10T11:01:01.335Z,5.72
2023-03-10T11:03:33.268Z,5.25
2023-03-10T11:06:02.933Z,5.22
2023-03-10T11:08:34.986Z,5.00
2023-03-10T11:11:15.912Z,4.88
2023-03-10T11:14:13.754Z,5.88
2023-03-10T11:16:51.144Z,6.70
2023-03-10T11:19:32.568Z,6.25
2023-03-10T11:22:06.398Z,6.38
2023-03-10T11:24:40.773Z,7.05
2023-03-10T11:27:16.605Z,8.45
2023-03-10T11:29:57.692Z,7.78
2023-03-10T11:32:32.037Z,8.30
2023-03-10T11:35:00.938Z,8.73
2023-03-10T11:37:36.132Z,8.88
2023-03-10T11:40:19.731Z,8.73
2023-03-10T11:42:58.829Z,8.68
2023-03-10T11:45:31.970Z,8.93
2023-03-10T11:48:11.358Z,9.40
2023-03-10T11:50:49.012Z,10.70
2023-03-10T11:53:22.919Z,10.30
2023-03-10T11:55:52.238Z,10.02
2023-03-10T11:58:27.978Z,9.00
2023-03-10T12:00:56.773Z,9.30
2023-03-10T12:03:43.338Z,9.95
2023-03-10T12:06:15.653Z,9.80
2023-03-10T12:08:43.815Z,7.65
2023-03-10T12:11:18.037Z,6.43
2023-03-10T12:13:49.991Z,5.60
2023-03-10T12:16:21.713Z,4.60
2023-03-10T12:18:49.839Z,4.30
2023-03-10T12:21:22.345Z,3.40
2023-03-10T12:23:52.176Z,3.92
2023-03-10T12:26:57.965Z,3.58
2023-03-10T12:29:45.973Z,3.60
2023-03-10T12:32:43.694Z,4.05
2023-03-10T12:35:44.606Z,3.97
2023-03-10T12:38:40.886Z,3.90
2023-03-10T12:41:09.588Z,3.90
2023-03-10T12:44:07.967Z,3.95
2023-03-10T12:46:44.718Z,3.28
2023-03-10T12:49:26.572Z,3.35
2023-03-10T12:52:00.775Z,4.20
2023-03-10T12:54:42.768Z,8.43
2023-03-10T12:57:17.045Z,7.30
2023-03-10T12:59:52.953Z,6.50
2023-03-10T13:02:33.577Z,5.63
2023-03-10T13:05:05.023Z,4.97
2023-03-10T13:07:33.226Z,5.70
2023-03-10T13:10:03.545Z,5.35
2023-03-10T13:12:38.552Z,5.40
2023-03-10T13:15:08.899Z,5.50
2023-03-10T13:17:38.082Z,4.95
2023-03-10T13:20:09.463Z,4.10
2023-03-10T13:22:37.297Z,5.18
2023-03-10T13:25:08.315Z,4.97
2023-03-10T13:27:37.149Z,4.35
2023-03-10T13:30:13.437Z,3.90
2023-03-10T13:32:44.105Z,4.35
2023-03-10T13:35:24.878Z,5.10
2023-03-10T13:38:07.658Z,5.22
2023-03-10T13:40:36.486Z,4.78
2023-03-10T13:43:07.275Z,4.68
2023-03-10T13:45:35.368Z,4.75
2023-03-10T13:48:07.087Z,5.13
2023-03-10T13:50:35.227Z,4.65
2023-03-10T13:53:04.733Z,6.18
2023-03-10T13:55:41.586Z,5.55
2023-03-10T13:58:13.893Z,5.35
2023-03-10T14:00:47.410Z,4.93
2023-03-10T14:03:17.103Z,5.15
2023-03-10T14:05:48.178Z,5.93
2023-03-10T14:08:22.886Z,6.22
2023-03-10T14:10:51.363Z,6.15
2023-03-10T14:13:42.917Z,7.03
2023-03-10T14:16:11.754Z,5.50
2023-03-10T14:18:43.084Z,5.07
2023-03-10T14:21:30.201Z,4.15
2023-03-10T14:24:07.431Z,3.95
2023-03-10T14:26:36.278Z,4.75
2023-03-10T14:29:07.593Z,4.30
2023-03-10T14:31:35.857Z,3.65
2023-03-10T14:34:05.733Z,4.55
2023-03-10T14:36:34.079Z,4.88
2023-03-10T14:39:02.687Z,4.18
2023-03-10T14:41:32.148Z,4.60
2023-03-10T14:44:01.131Z,5.38
2023-03-10T14:46:29.665Z,4.70
2023-03-10T14:48:57.753Z,5.93
2023-03-10T14:51:35.652Z,5.10
2023-03-10T14:54:04.544Z,4.57
2023-03-10T14:56:34.040Z,5.40
2023-03-10T14:59:02.851Z,5.45
2023-03-10T15:01:31.919Z,5.88
2023-03-10T15:03:59.814Z,5.70
2023-03-10T15:06:29.053Z,5.78
2023-03-10T15:08:56.918Z,5.82
2023-03-10T15:11:36.569Z,5.97
2023-03-10T15:14:11.494Z,10.40
2023-03-10T15:16:39.377Z,7.03
2023-03-10T15:19:07.346Z,6.65
2023-03-10T15:21:36.529Z,7.57
2023-03-10T15:24:07.532Z,9.25
2023-03-10T15:26:35.360Z,7.35
2023-03-10T15:29:03.171Z,7.07
2023-03-10T15:31:31.033Z,8.45
2023-03-10T15:33:58.943Z,6.85
2023-03-10T15:36:26.749Z,8.00
2023-03-10T15:38:55.917Z,9.18
2023-03-10T15:41:23.742Z,8.07
2023-03-10T15:43:51.555Z,9.85
2023-03-10T15:46:20.433Z,13.43
2023-03-10T15:48:48.421Z,11.73
2023-03-10T15:51:17.956Z,10.18
2023-03-10T15:53:46.161Z,9.38
2023-03-10T15:56:16.193Z,11.68
2023-03-10T15:58:44.072Z,12.98
2023-03-10T16:01:16.282Z,11.18
2023-03-10T16:03:44.636Z,8.13
2023-03-10T16:06:13.875Z,7.70
2023-03-10T16:08:41.789Z,7.18
2023-03-10T16:11:18.805Z,9.35
2023-03-10T16:13:49.381Z,5.95
2023-03-10T16:16:19.308Z,3.28
2023-03-10T16:18:47.851Z,3.58
2023-03-10T16:21:17.928Z,3.60
2023-03-10T16:26:15.716Z,5.10
2023-03-10T16:28:47.171Z,5.00
2023-03-10T16:31:17.376Z,4.95
2023-03-10T16:36:18.136Z,6.72
2023-03-10T16:38:46.576Z,4.93
2023-03-10T16:41:15.037Z,4.80
2023-03-10T16:43:44.388Z,5.82
2023-03-10T16:46:14.413Z,8.03
2023-03-10T16:48:43.828Z,9.60
2023-03-10T16:51:26.840Z,9.20
2023-03-10T16:53:57.698Z,5.93
2023-03-10T16:56:26.599Z,4.32
2023-03-10T16:58:56.920Z,3.05
2023-03-10T17:03:53.255Z,4.93
2023-03-10T17:06:23.350Z,3.85
2023-03-10T17:08:52.552Z,3.33
2023-03-10T17:11:22.852Z,3.17
2023-03-10T17:13:53.451Z,2.58
2023-03-10T17:16:28.113Z,2.72
2023-03-10T17:18:57.189Z,3.70
2023-03-10T17:21:26.565Z,4.18
2023-03-10T17:23:54.602Z,3.73
2023-03-10T17:26:23.081Z,3.60
2023-03-10T17:28:52.392Z,6.38
2023-03-10T17:31:26.983Z,4.93
2023-03-10T17:33:56.312Z,5.18
2023-03-10T17:36:24.542Z,4.53
2023-03-10T17:38:53.586Z,5.63
2023-03-10T17:41:21.381Z,4.68
2023-03-10T17:43:49.530Z,7.00
2023-03-10T17:46:19.651Z,4.60
2023-03-10T17:51:17.858Z,8.38
2023-03-10T17:53:46.159Z,3.92
2023-03-10T17:56:16.114Z,4.22
2023-03-10T17:58:44.231Z,18.98
2023-03-10T18:01:13.934Z,9.93
2023-03-10T18:03:42.661Z,7.93
2023-03-10T18:06:16.772Z,4.32
2023-03-10T18:08:44.953Z,6.18
2023-03-10T18:11:14.333Z,6.28
2023-03-10T18:13:42.423Z,4.97
2023-03-10T18:16:16.834Z,19.02
2023-03-10T18:18:45.243Z,5.95
2023-03-10T18:21:15.578Z,5.10
2023-03-10T18:23:43.626Z,9.48
2023-03-10T18:26:14.013Z,19.40
2023-03-10T18:28:41.986Z,4.88
2023-03-10T18:31:11.342Z,6.00
2023-03-10T18:33:39.258Z,7.23
2023-03-10T18:36:08.707Z,7.82
2023-03-10T18:38:37.873Z,8.02
2023-03-10T18:41:05.995Z,8.38
2023-03-10T18:43:34.510Z,6.47
2023-03-10T18:46:02.519Z,11.45
2023-03-10T18:48:30.433Z,6.80
2023-03-10T18:51:00.381Z,3.20
2023-03-10T18:53:28.870Z,3.50
2023-03-10T18:55:59.880Z,2.70
2023-03-10T18:58:29.824Z,2.75
2023-03-10T19:00:59.069Z,2.88
2023-03-10T19:03:29.515Z,4.20
2023-03-10T19:05:57.910Z,3.15
2023-03-10T19:08:27.169Z,3.15
2023-03-10T19:10:56.606Z,3.40
2023-03-10T19:13:27.755Z,3.53
2023-03-10T19:15:56.124Z,2.10
2023-03-10T19:18:24.381Z,1.40
2023-03-10T19:20:54.358Z,2.10
2023-03-10T19:23:22.213Z,1.60
2023-03-10T19:25:49.957Z,1.50
2023-03-10T19:28:17.849Z,1.20
2023-03-10T19:30:47.439Z,1.10
2023-03-10T19:33:15.343Z,1.00
2023-03-10T19:35:43.192Z,1.08
2023-03-10T19:38:11.056Z,1.00
2023-03-10T19:40:39.196Z,1.10
2023-03-10T19:43:07.016Z,1.40
2023-03-10T19:45:34.917Z,1.25
2023-03-10T19:48:04.039Z,1.77
2023-03-10T19:50:31.883Z,2.50
2023-03-10T19:52:59.698Z,3.22
2023-03-10T19:55:27.638Z,4.53
2023-03-10T19:57:57.065Z,5.30
2023-03-10T20:00:30.896Z,6.88
2023-03-10T20:02:59.452Z,8.07
2023-03-10T20:05:28.852Z,8.00
2023-03-10T20:07:56.785Z,8.55
2023-03-10T20:10:24.741Z,7.47
2023-03-10T20:12:52.654Z,7.53
2023-03-10T20:15:20.787Z,9.05
2023-03-10T20:17:48.704Z,8.35
2023-03-10T20:20:20.195Z,7.68
2023-03-10T20:22:50.878Z,7.35
2023-03-10T20:25:21.121Z,8.77
2023-03-10T20:27:50.853Z,7.20
2023-03-10T20:30:20.908Z,7.68
2023-03-10T20:32:48.747Z,7.75
2023-03-10T20:35:17.705Z,7.35
2023-03-10T20:37:45.609Z,9.00
2023-03-10T20:40:16.765Z,8.10
2023-03-10T20:42:44.670Z,9.10
2023-03-10T20:45:12.829Z,8.77
2023-03-10T20:47:40.761Z,8.82
2023-03-10T20:50:11.777Z,9.30
2023-03-10T20:52:41.978Z,9.13
2023-03-10T20:57:43.065Z,10.10
2023-03-10T21:00:12.467Z,11.37
2023-03-10T21:02:40.626Z,11.90
2023-03-10T21:05:09.235Z,11.27
2023-03-10T21:07:37.197Z,12.77
2023-03-10T21:10:05.828Z,12.07
2023-03-10T21:12:33.921Z,12.95
2023-03-10T21:15:03.251Z,12.73
2023-03-10T21:17:31.181Z,12.88
2023-03-10T21:19:59.086Z,13.13
2023-03-10T21:22:30.314Z,14.82
2023-03-10T21:24:58.270Z,16.10
2023-03-10T21:27:27.506Z,15.10
2023-03-10T21:29:55.887Z,16.43
2023-03-10T21:32:26.898Z,16.70
2023-03-10T21:34:55.056Z,27.00
2023-03-10T21:37:23.030Z,14.65
2023-03-10T21:39:50.916Z,17.15
2023-03-10T21:42:18.741Z,11.93
2023-03-10T21:44:47.969Z,13.93
2023-03-10T21:47:16.392Z,11.63
2023-03-10T21:49:45.635Z,12.20
2023-03-10T21:52:14.075Z,10.47
2023-03-10T21:54:42.961Z,9.77
2023-03-10T21:57:10.902Z,8.02
2023-03-10T21:59:39.106Z,8.27
2023-03-10T22:02:08.224Z,7.80
2023-03-10T22:04:36.112Z,10.32
2023-03-10T22:07:05.389Z,12.02
2023-03-10T22:09:33.276Z,8.30
2023-03-10T22:12:01.163Z,8.93
2023-03-10T22:14:29.066Z,9.43
2023-03-10T22:16:57.053Z,8.55
2023-03-10T22:19:24.924Z,10.02
2023-03-10T22:21:52.828Z,9.85
2023-03-10T22:24:22.087Z,10.18
2023-03-10T22:26:49.907Z,8.77
2023-03-10T22:29:17.826Z,9.25
2023-03-10T22:31:45.734Z,10.30
2023-03-10T22:34:13.591Z,11.50
2023-03-10T22:36:41.468Z,11.25
2023-03-10T22:39:09.287Z,11.05
2023-03-10T22:41:38.970Z,9.80
2023-03-10T22:44:06.957Z,10.13
2023-03-10T22:46:34.859Z,9.70
2023-03-10T22:49:02.878Z,9.68
2023-03-10T22:51:30.836Z,10.27
2023-03-10T22:53:58.725Z,10.05
2023-03-10T22:56:26.620Z,11.77
2023-03-10T22:58:55.953Z,10.02
2023-03-10T23:01:24.324Z,10.60
2023-03-10T23:03:52.214Z,9.95
2023-03-10T23:06:20.376Z,10.07
2023-03-10T23:08:48.573Z,9.23
2023-03-10T23:11:16.700Z,8.10
2023-03-10T23:13:44.699Z,7.32
2023-03-10T23:16:14.041Z,6.93
2023-03-10T23:18:42.028Z,5.80
2023-03-10T23:21:09.896Z,6.15
2023-03-10T23:23:39.229Z,6.70
2023-03-10T23:26:07.214Z,6.60
2023-03-10T23:28:35.145Z,6.53
2023-03-10T23:31:03.048Z,6.47
2023-03-10T23:33:32.451Z,6.53
2023-03-10T23:36:00.377Z,6.50
2023-03-10T23:38:28.710Z,7.53
2023-03-10T23:40:56.814Z,5.63
2023-03-10T23:43:24.946Z,5.15
2023-03-10T23:45:53.002Z,5.07
2023-03-10T23:48:21.128Z,4.88
2023-03-10T23:50:50.768Z,5.28
2023-03-10T23:53:21.091Z,5.07
2023-03-10T23:55:49.649Z,4.60
2023-03-10T23:58:19.300Z,4.05
